Back to Top

Language: 

My Weather Underground Personal Weather Station Historical Data with Graphs...

Delerius Weather Station Historical Data
Daily Summary for September 12, 2017 Units:  Metric    English   Both
« Previous Day
Next Day »
Daily Weekly Monthly Yearly Custom
  High: Low: Average:
Temperature: 16.1 °C 10.8 °C 13 °C
Dew Point: 11 °C 8.6 °C 9.6 °C
Humidity: 96 % 63 % 80 %
Wind Speed: 25.7 km/h 4.8 km/h 15.6 km/h
Wind Gust: 48.3 km/h - -
Wind:- - WSW
Pressure: 1003.3 hPa 986.7 hPa -
Precipitation: 2.79 mm    
Historical Graphs
 
 
Tabular Data for September 12, 2017
Time Temperature Dew Point Pressure Wind Wind Speed Wind Gust Humidity Rainfall Rate (Hourly) solar Conditions
00:00 11.9 °C 9.3 °C 996.8 hPa West 17.7 km/h 32.2 km/h 84 % 0 mm 0 W/m2
00:05 11.9 °C 9.3 °C 996.8 hPa West 17.7 km/h 37 km/h 84 % 0 mm 0 W/m2
00:10 11.9 °C 9.3 °C 996.8 hPa West 19.3 km/h 37 km/h 84 % 0 mm 0 W/m2
00:15 11.9 °C 9.3 °C 996.8 hPa WNW 19.3 km/h 33.8 km/h 84 % 0 mm 0 W/m2
00:20 11.8 °C 9.2 °C 996.8 hPa WNW 17.7 km/h 32.2 km/h 84 % 0 mm 0 W/m2
00:25 11.8 °C 9.2 °C 997.2 hPa WNW 16.1 km/h 30.6 km/h 84 % 0 mm 0 W/m2
00:30 11.8 °C 9.2 °C 996.8 hPa WNW 16.1 km/h 32.2 km/h 84 % 0 mm 0 W/m2
00:35 11.7 °C 9.1 °C 996.8 hPa WNW 14.5 km/h 32.2 km/h 84 % 0 mm 0 W/m2
00:40 11.7 °C 9.1 °C 996.8 hPa West 16.1 km/h 33.8 km/h 84 % 0 mm 0 W/m2
00:45 11.7 °C 8.9 °C 996.8 hPa WNW 17.7 km/h 37 km/h 83 % 0 mm 0 W/m2
00:50 11.7 °C 8.9 °C 996.8 hPa WNW 17.7 km/h 37 km/h 83 % 0 mm 0 W/m2
00:55 11.7 °C 8.9 °C 996.8 hPa WNW 14.5 km/h 29 km/h 83 % 0 mm 0 W/m2
01:00 11.6 °C 8.8 °C 996.8 hPa WNW 16.1 km/h 29 km/h 83 % 0 mm 0 W/m2
01:05 11.6 °C 9 °C 996.8 hPa WNW 16.1 km/h 30.6 km/h 84 % 0 mm 0 W/m2
01:10 11.6 °C 9 °C 997.2 hPa WNW 14.5 km/h 30.6 km/h 84 % 0 mm 0 W/m2
01:15 11.6 °C 9.2 °C 997.2 hPa WNW 14.5 km/h 30.6 km/h 85 % 0 mm 0 W/m2
01:20 11.6 °C 9.3 °C 997.2 hPa WNW 14.5 km/h 30.6 km/h 86 % 0 mm 0 W/m2
01:25 11.6 °C 9.3 °C 997.2 hPa WNW 14.5 km/h 29 km/h 86 % 0 mm 0 W/m2
01:30 11.6 °C 9.3 °C 997.5 hPa WNW 14.5 km/h 29 km/h 86 % 0 mm 0 W/m2
01:35 11.6 °C 9.3 °C 997.5 hPa West 12.9 km/h 29 km/h 86 % 0 mm 0 W/m2
01:40 11.6 °C 9.3 °C 997.5 hPa West 14.5 km/h 30.6 km/h 86 % 0 mm 0 W/m2
01:45 11.7 °C 9.3 °C 997.5 hPa West 16.1 km/h 30.6 km/h 85 % 0 mm 0 W/m2
01:50 11.7 °C 9.3 °C 997.5 hPa West 16.1 km/h 30.6 km/h 85 % 0 mm 0 W/m2
01:55 11.7 °C 9.4 °C 997.5 hPa West 16.1 km/h 32.2 km/h 86 % 0 mm 0 W/m2
02:00 11.7 °C 9.4 °C 997.5 hPa WNW 14.5 km/h 32.2 km/h 86 % 0 mm 0 W/m2
02:10 11.6 °C 9.3 °C 997.5 hPa WNW 12.9 km/h 24.1 km/h 86 % 0 mm 0 W/m2
02:15 11.6 °C 9.5 °C 997.9 hPa WNW 14.5 km/h 29 km/h 87 % 0 mm 0 W/m2
02:20 11.6 °C 9.3 °C 997.9 hPa WNW 14.5 km/h 29 km/h 86 % 0 mm 0 W/m2
02:25 11.6 °C 9.3 °C 997.9 hPa West 16.1 km/h 30.6 km/h 86 % 0 mm 0 W/m2
02:30 11.6 °C 9.3 °C 997.9 hPa West 17.7 km/h 32.2 km/h 86 % 0 mm 0 W/m2
02:35 11.7 °C 9.4 °C 997.9 hPa West 17.7 km/h 32.2 km/h 86 % 0 mm 0 W/m2
02:40 11.7 °C 9.4 °C 998.2 hPa West 17.7 km/h 32.2 km/h 86 % 0 mm 0 W/m2
02:45 11.7 °C 9.3 °C 998.2 hPa West 20.9 km/h 37 km/h 85 % 0 mm 0 W/m2
02:50 11.7 °C 9.3 °C 998.2 hPa West 19.3 km/h 37 km/h 85 % 0 mm 0 W/m2
02:55 11.6 °C 9.2 °C 998.2 hPa WNW 16.1 km/h 25.7 km/h 85 % 0 mm 0 W/m2
03:00 11.6 °C 9.2 °C 998.2 hPa WNW 16.1 km/h 24.1 km/h 85 % 0 mm 0 W/m2
03:05 11.6 °C 9.2 °C 998.2 hPa WNW 14.5 km/h 29 km/h 85 % 0 mm 0 W/m2
03:10 11.6 °C 9.2 °C 998.5 hPa West 14.5 km/h 29 km/h 85 % 0 mm 0 W/m2
03:15 11.5 °C 9.1 °C 998.5 hPa West 14.5 km/h 29 km/h 85 % 0 mm 0 W/m2
03:20 11.5 °C 9.1 °C 998.5 hPa West 14.5 km/h 25.7 km/h 85 % 0 mm 0 W/m2
03:25 11.5 °C 9.1 °C 998.5 hPa West 16.1 km/h 35.4 km/h 85 % 0 mm 0 W/m2
03:30 11.4 °C 8.9 °C 998.5 hPa West 17.7 km/h 35.4 km/h 85 % 0 mm 0 W/m2
03:35 11.4 °C 8.9 °C 998.5 hPa West 17.7 km/h 30.6 km/h 85 % 0 mm 0 W/m2
03:40 11.5 °C 9.2 °C 998.5 hPa West 17.7 km/h 35.4 km/h 86 % 0 mm 0 W/m2
03:45 11.6 °C 9.3 °C 998.5 hPa West 20.9 km/h 43.5 km/h 86 % 0 mm 0 W/m2
03:50 11.6 °C 9.3 °C 998.5 hPa West 25.7 km/h 48.3 km/h 86 % 0 mm 0 W/m2
03:55 11.6 °C 9.2 °C 998.9 hPa West 24.1 km/h 48.3 km/h 85 % 0 mm 0 W/m2
04:00 11.6 °C 9.2 °C 998.9 hPa West 20.9 km/h 38.6 km/h 85 % 0 mm 0 W/m2
04:05 11.7 °C 9.4 °C 998.9 hPa West 20.9 km/h 41.8 km/h 86 % 0 mm 0 W/m2
04:10 11.7 °C 9.4 °C 998.9 hPa WNW 20.9 km/h 41.8 km/h 86 % 0 mm 0 W/m2
04:15 11.6 °C 9.5 °C 998.9 hPa WNW 20.9 km/h 37 km/h 87 % 0 mm 0 W/m2
04:20 11.4 °C 9.3 °C 998.9 hPa WNW 19.3 km/h 37 km/h 87 % 0 mm 0 W/m2
04:21 11.4 °C 9.5 °C 998.9 hPa WNW 19.3 km/h 35.4 km/h 88 % 0 mm 0 W/m2
04:25 11.4 °C 9.5 °C 998.9 hPa WNW 16.1 km/h 30.6 km/h 88 % 0 mm 0 W/m2
04:31 11.3 °C 9.4 °C 998.9 hPa West 16.1 km/h 38.6 km/h 88 % 0 mm 0 W/m2
04:36 11.3 °C 9.6 °C 998.9 hPa West 17.7 km/h 38.6 km/h 89 % 0 mm 0 W/m2
04:41 11.2 °C 9.3 °C 998.9 hPa West 16.1 km/h 38.6 km/h 88 % 0 mm 0 W/m2
04:46 11.2 °C 9.3 °C 998.9 hPa West 16.1 km/h 32.2 km/h 88 % 0 mm 0 W/m2
04:51 11.2 °C 9.4 °C 998.9 hPa West 16.1 km/h 32.2 km/h 89 % 0 mm 0 W/m2
04:56 11.2 °C 9.4 °C 998.9 hPa West 17.7 km/h 32.2 km/h 89 % 0 mm 0 W/m2
05:01 11.3 °C 9.4 °C 998.9 hPa West 20.9 km/h 32.2 km/h 88 % 0 mm 0 W/m2
05:06 11.3 °C 9.4 °C 998.9 hPa West 22.5 km/h 38.6 km/h 88 % 0 mm 0 W/m2
05:11 11.3 °C 9.4 °C 999.2 hPa West 22.5 km/h 38.6 km/h 88 % 0 mm 0 W/m2
05:16 11.3 °C 9.4 °C 999.2 hPa West 20.9 km/h 37 km/h 88 % 0 mm 0 W/m2
05:21 11.2 °C 9.3 °C 999.2 hPa West 19.3 km/h 35.4 km/h 88 % 0 mm 0 W/m2
05:26 11.2 °C 9.3 °C 999.2 hPa WNW 20.9 km/h 38.6 km/h 88 % 0 mm 0 W/m2
05:31 11.3 °C 9.4 °C 999.2 hPa WNW 20.9 km/h 38.6 km/h 88 % 0 mm 0 W/m2
05:36 11.3 °C 9.4 °C 999.2 hPa WNW 20.9 km/h 33.8 km/h 88 % 0 mm 0 W/m2
05:39 11.3 °C 9.4 °C 999.2 hPa WNW 20.9 km/h 33.8 km/h 88 % 0 mm 0 W/m2
05:44 11.3 °C 9.4 °C 999.2 hPa WNW 20.9 km/h 40.2 km/h 88 % 0 mm 0 W/m2
05:49 11.3 °C 9.4 °C 999.5 hPa WNW 19.3 km/h 40.2 km/h 88 % 0 mm 0 W/m2
05:54 11.3 °C 9.2 °C 999.5 hPa WNW 20.9 km/h 41.8 km/h 87 % 0 mm 0 W/m2
05:59 11.3 °C 9.1 °C 999.5 hPa WNW 20.9 km/h 41.8 km/h 86 % 0 mm 0 W/m2
06:04 11.3 °C 9.1 °C 999.5 hPa WNW 20.9 km/h 46.7 km/h 86 % 0 mm 0 W/m2
06:09 11.3 °C 9.1 °C 999.5 hPa WNW 22.5 km/h 46.7 km/h 86 % 0 mm 0 W/m2
06:14 11.3 °C 9.1 °C 999.5 hPa WNW 22.5 km/h 46.7 km/h 86 % 0 mm 0 W/m2
06:19 11.3 °C 9.1 °C 999.5 hPa WNW 24.1 km/h 46.7 km/h 86 % 0 mm 0 W/m2
06:24 11.3 °C 9.1 °C 999.5 hPa WNW 22.5 km/h 43.5 km/h 86 % 0 mm 0 W/m2
06:29 11.2 °C 8.9 °C 999.5 hPa West 20.9 km/h 40.2 km/h 86 % 0 mm 0 W/m2
06:34 11.2 °C 8.9 °C 999.9 hPa West 20.9 km/h 40.2 km/h 86 % 0 mm 5 W/m2
06:39 11.2 °C 8.9 °C 999.9 hPa West 19.3 km/h 38.6 km/h 86 % 0 mm 7 W/m2
06:44 11.2 °C 8.9 °C 999.9 hPa WNW 17.7 km/h 37 km/h 86 % 0 mm 9 W/m2
06:49 11.2 °C 8.8 °C 999.9 hPa WNW 19.3 km/h 38.6 km/h 85 % 0 mm 11 W/m2
06:54 11.2 °C 8.8 °C 999.9 hPa WNW 20.9 km/h 38.6 km/h 85 % 0 mm 14 W/m2
06:59 11.2 °C 8.8 °C 1000.2 hPa WNW 19.3 km/h 37 km/h 85 % 0 mm 16 W/m2
07:04 11.2 °C 8.8 °C 1000.2 hPa WNW 17.7 km/h 37 km/h 85 % 0 mm 19 W/m2
07:09 11.2 °C 8.8 °C 1000.2 hPa WNW 19.3 km/h 37 km/h 85 % 0 mm 23 W/m2
07:14 11.3 °C 8.9 °C 1000.2 hPa WNW 20.9 km/h 38.6 km/h 85 % 0 mm 25 W/m2
07:19 11.4 °C 8.9 °C 1000.2 hPa WNW 22.5 km/h 40.2 km/h 85 % 0 mm 26 W/m2
07:24 11.4 °C 8.9 °C 1000.2 hPa WNW 20.9 km/h 40.2 km/h 85 % 0 mm 79 W/m2
07:29 11.4 °C 8.9 °C 1000.2 hPa WNW 17.7 km/h 33.8 km/h 85 % 0 mm 30 W/m2
07:34 11.5 °C 9.1 °C 1000.6 hPa WNW 17.7 km/h 32.2 km/h 85 % 0 mm 33 W/m2
07:39 11.6 °C 9.2 °C 1000.6 hPa WNW 20.9 km/h 41.8 km/h 85 % 0 mm 35 W/m2
07:44 11.6 °C 9.2 °C 1000.6 hPa WNW 20.9 km/h 41.8 km/h 85 % 0 mm 39 W/m2
07:49 11.7 °C 9.1 °C 1000.6 hPa WNW 16.1 km/h 30.6 km/h 84 % 0 mm 42 W/m2
07:54 11.8 °C 9.2 °C 1000.6 hPa WNW 16.1 km/h 35.4 km/h 84 % 0 mm 51 W/m2
07:59 11.9 °C 9.3 °C 1000.9 hPa WNW 19.3 km/h 35.4 km/h 84 % 0 mm 132 W/m2
08:04 12.2 °C 9.6 °C 1000.9 hPa WNW 19.3 km/h 35.4 km/h 84 % 0 mm 197 W/m2
08:09 12.4 °C 9.6 °C 1000.9 hPa WNW 19.3 km/h 35.4 km/h 83 % 0 mm 216 W/m2
08:10 12.4 °C 9.6 °C 1000.9 hPa WNW 19.3 km/h 35.4 km/h 83 % 0 mm 216 W/m2
08:15 12.6 °C 9.6 °C 1000.9 hPa WNW 17.7 km/h 30.6 km/h 82 % 0 mm 225 W/m2
08:20 12.7 °C 9.7 °C 1001.2 hPa WNW 17.7 km/h 35.4 km/h 82 % 0 mm 232 W/m2
08:25 12.8 °C 9.6 °C 1000.9 hPa WNW 19.3 km/h 35.4 km/h 81 % 0 mm 241 W/m2
08:30 12.9 °C 9.7 °C 1001.2 hPa WNW 19.3 km/h 33.8 km/h 81 % 0 mm 255 W/m2
08:35 13.1 °C 9.9 °C 1001.2 hPa WNW 20.9 km/h 35.4 km/h 81 % 0 mm 271 W/m2
08:40 13.2 °C 9.8 °C 1001.2 hPa WNW 20.9 km/h 37 km/h 80 % 0 mm 279 W/m2
08:45 13.2 °C 9.6 °C 1001.2 hPa WNW 22.5 km/h 38.6 km/h 79 % 0 mm 295 W/m2
08:50 13.3 °C 9.7 °C 1001.6 hPa WNW 24.1 km/h 38.6 km/h 79 % 0 mm 306 W/m2
08:55 13.4 °C 9.8 °C 1001.6 hPa WNW 22.5 km/h 37 km/h 79 % 0 mm 325 W/m2
09:00 13.6 °C 10 °C 1001.6 hPa WNW 22.5 km/h 35.4 km/h 79 % 0 mm 336 W/m2
09:05 13.7 °C 9.9 °C 1001.6 hPa WNW 24.1 km/h 35.4 km/h 78 % 0 mm 350 W/m2
09:10 13.7 °C 9.9 °C 1001.6 hPa WNW 24.1 km/h 40.2 km/h 78 % 0 mm 329 W/m2
09:15 13.7 °C 9.9 °C 1001.9 hPa WNW 24.1 km/h 40.2 km/h 78 % 0 mm 380 W/m2
09:20 13.8 °C 9.8 °C 1001.9 hPa WNW 24.1 km/h 46.7 km/h 77 % 0 mm 396 W/m2
09:25 14 °C 10.1 °C 1001.9 hPa WNW 22.5 km/h 46.7 km/h 77 % 0 mm 406 W/m2
09:30 14.1 °C 9.9 °C 1001.9 hPa WNW 20.9 km/h 38.6 km/h 76 % 0 mm 415 W/m2
09:35 14.2 °C 10 °C 1001.9 hPa West 22.5 km/h 40.2 km/h 76 % 0 mm 427 W/m2
09:40 14.3 °C 10.1 °C 1001.9 hPa West 20.9 km/h 40.2 km/h 76 % 0 mm 441 W/m2
09:45 14.5 °C 10.1 °C 1002.3 hPa West 17.7 km/h 38.6 km/h 75 % 0 mm 483 W/m2
09:50 14.6 °C 10 °C 1002.3 hPa West 17.7 km/h 33.8 km/h 74 % 0 mm 512 W/m2
09:55 14.8 °C 10.2 °C 1002.3 hPa West 17.7 km/h 33.8 km/h 74 % 0 mm 522 W/m2
09:59 15.1 °C 10.3 °C 1002.3 hPa West 17.7 km/h 37 km/h 73 % 0 mm 554 W/m2
10:04 15 °C 10.2 °C 1002.3 hPa West 17.7 km/h 37 km/h 73 % 0 mm 197 W/m2
10:09 14.8 °C 9.8 °C 1002.3 hPa WNW 22.5 km/h 37 km/h 72 % 0 mm 552 W/m2
10:14 14.9 °C 10.1 °C 1002.3 hPa WNW 22.5 km/h 37 km/h 73 % 0 mm 592 W/m2
10:19 14.8 °C 10 °C 1002.3 hPa West 22.5 km/h 41.8 km/h 73 % 0 mm 631 W/m2
10:24 14.8 °C 10.4 °C 1002.3 hPa West 24.1 km/h 43.5 km/h 75 % 0 mm 671 W/m2
10:29 14.9 °C 10.3 °C 1002.3 hPa West 24.1 km/h 43.5 km/h 74 % 0 mm 715 W/m2
10:34 15.1 °C 10.5 °C 1002.3 hPa West 24.1 km/h 41.8 km/h 74 % 0 mm 629 W/m2
10:39 15.2 °C 10.4 °C 1002.3 hPa West 24.1 km/h 41.8 km/h 73 % 0 mm 135 W/m2
10:44 14.9 °C 10.3 °C 1002.3 hPa WNW 22.5 km/h 41.8 km/h 74 % 0 mm 192 W/m2
10:49 14.6 °C 10.2 °C 1002.3 hPa WNW 22.5 km/h 41.8 km/h 75 % 0 mm 264 W/m2
10:54 14.5 °C 10.3 °C 1002.3 hPa WNW 20.9 km/h 33.8 km/h 76 % 0 mm 371 W/m2
10:59 14.5 °C 10.3 °C 1002.3 hPa West 19.3 km/h 33.8 km/h 76 % 0 mm 204 W/m2
11:04 14.3 °C 10.3 °C 1002.3 hPa West 17.7 km/h 29 km/h 77 % 0 mm 127 W/m2
11:09 13.9 °C 10.3 °C 1002.3 hPa West 14.5 km/h 29 km/h 79 % 0 mm 135 W/m2
11:14 14.1 °C 10.5 °C 1002.3 hPa West 14.5 km/h 25.7 km/h 79 % 0 mm 691 W/m2
11:19 14.6 °C 11 °C 1002.3 hPa West 16.1 km/h 30.6 km/h 79 % 0 mm 571 W/m2
11:24 14.8 °C 10.6 °C 1002.6 hPa West 17.7 km/h 32.2 km/h 76 % 0 mm 241 W/m2
11:29 14.9 °C 10.7 °C 1002.6 hPa WSW 16.1 km/h 32.2 km/h 76 % 0 mm 178 W/m2
11:34 15 °C 10.8 °C 1002.6 hPa West 12.9 km/h 22.5 km/h 76 % 0 mm 207 W/m2
11:40 15 °C 10.6 °C 1002.6 hPa West 14.5 km/h 30.6 km/h 75 % 0 mm 186 W/m2
11:45 14.9 °C 10.1 °C 1002.9 hPa West 17.7 km/h 30.6 km/h 73 % 0 mm 250 W/m2
11:50 14.9 °C 10.3 °C 1002.9 hPa WSW 17.7 km/h 30.6 km/h 74 % 0 mm 343 W/m2
11:55 15.2 °C 10.4 °C 1002.6 hPa West 17.7 km/h 30.6 km/h 73 % 0 mm 798 W/m2
12:00 15.6 °C 10.6 °C 1002.6 hPa WSW 19.3 km/h 43.5 km/h 72 % 0 mm 459 W/m2
12:05 15.4 °C 10.2 °C 1002.9 hPa WSW 19.3 km/h 43.5 km/h 71 % 0 mm 204 W/m2
12:10 15.3 °C 10.3 °C 1002.9 hPa WSW 16.1 km/h 32.2 km/h 72 % 0 mm 179 W/m2
12:15 15.2 °C 10.6 °C 1002.9 hPa WSW 12.9 km/h 24.1 km/h 74 % 0 mm 199 W/m2
12:20 15.1 °C 10.3 °C 1002.9 hPa WSW 12.9 km/h 25.7 km/h 73 % 0 mm 162 W/m2
12:25 15 °C 10.2 °C 1003.3 hPa West 14.5 km/h 29 km/h 73 % 0 mm 128 W/m2
12:30 14.9 °C 10.1 °C 1003.3 hPa West 14.5 km/h 30.6 km/h 73 % 0 mm 269 W/m2
12:35 14.9 °C 10.3 °C 1003.3 hPa WSW 14.5 km/h 30.6 km/h 74 % 0 mm 872 W/m2
12:40 15.1 °C 10.7 °C 1002.9 hPa WSW 14.5 km/h 24.1 km/h 75 % 0 mm 872 W/m2
12:45 15.4 °C 10.4 °C 1002.9 hPa SW 16.1 km/h 29 km/h 72 % 0 mm 279 W/m2
12:50 15.4 °C 10.4 °C 1002.9 hPa WSW 16.1 km/h 32.2 km/h 72 % 0 mm 181 W/m2
12:55 15.3 °C 9.8 °C 1003.3 hPa West 16.1 km/h 32.2 km/h 70 % 0 mm 121 W/m2
13:00 15.1 °C 9.2 °C 1003.3 hPa WSW 17.7 km/h 35.4 km/h 68 % 0 mm 165 W/m2
13:05 14.9 °C 9.1 °C 1003.3 hPa WSW 20.9 km/h 35.4 km/h 68 % 0 mm 148 W/m2
13:10 14.8 °C 8.9 °C 1003.3 hPa WSW 20.9 km/h 35.4 km/h 68 % 0 mm 113 W/m2
13:15 14.7 °C 9.1 °C 1003.3 hPa West 19.3 km/h 32.2 km/h 69 % 0 mm 104 W/m2
13:20 14.6 °C 9.2 °C 1002.9 hPa WSW 16.1 km/h 32.2 km/h 70 % 0 mm 120 W/m2
13:21 14.6 °C 9.2 °C 1003.3 hPa WSW 16.1 km/h 32.2 km/h 70 % 0 mm 128 W/m2
13:25 14.5 °C 9.3 °C 1002.9 hPa WSW 16.1 km/h 32.2 km/h 71 % 0 mm 130 W/m2
13:30 14.4 °C 9.2 °C 1002.9 hPa WSW 17.7 km/h 35.4 km/h 71 % 0 mm 207 W/m2
13:35 14.5 °C 9.3 °C 1002.9 hPa WSW 17.7 km/h 35.4 km/h 71 % 0 mm 197 W/m2
13:40 14.7 °C 9.5 °C 1002.9 hPa West 14.5 km/h 29 km/h 71 % 0 mm 199 W/m2
13:45 14.9 °C 9.5 °C 1002.9 hPa WSW 12.9 km/h 24.1 km/h 70 % 0 mm 156 W/m2
13:50 14.9 °C 9.3 °C 1002.9 hPa WSW 14.5 km/h 25.7 km/h 69 % 0 mm 220 W/m2
13:55 15 °C 9.3 °C 1002.9 hPa WSW 16.1 km/h 25.7 km/h 69 % 0 mm 190 W/m2
14:00 15.1 °C 9.2 °C 1002.9 hPa WSW 14.5 km/h 22.5 km/h 68 % 0 mm 134 W/m2
14:05 15.1 °C 9.4 °C 1002.9 hPa WSW 12.9 km/h 22.5 km/h 69 % 0 mm 139 W/m2
14:10 15.1 °C 9.7 °C 1002.9 hPa West 12.9 km/h 22.5 km/h 70 % 0 mm 123 W/m2
14:15 15.1 °C 9.7 °C 1002.9 hPa West 11.3 km/h 17.7 km/h 70 % 0 mm 76 W/m2
14:20 14.9 °C 9.3 °C 1002.9 hPa West 11.3 km/h 20.9 km/h 69 % 0 mm 70 W/m2
14:26 14.9 °C 9.7 °C 1002.9 hPa West 11.3 km/h 20.9 km/h 71 % 0 mm 84 W/m2
14:31 14.8 °C 9.6 °C 1002.6 hPa West 12.9 km/h 20.9 km/h 71 % 0 mm 162 W/m2
14:36 14.7 °C 9.5 °C 1002.6 hPa West 12.9 km/h 20.9 km/h 71 % 0 mm 176 W/m2
14:41 14.7 °C 9.7 °C 1002.3 hPa West 11.3 km/h 19.3 km/h 72 % 0 mm 118 W/m2
14:46 14.7 °C 9.7 °C 1002.6 hPa West 9.7 km/h 19.3 km/h 72 % 0 mm 79 W/m2
14:51 14.7 °C 9.7 °C 1002.3 hPa WSW 9.7 km/h 17.7 km/h 72 % 0 mm 56 W/m2
14:56 14.6 °C 9.6 °C 1002.3 hPa West 9.7 km/h 16.1 km/h 72 % 0 mm 65 W/m2
15:01 14.6 °C 9.8 °C 1002.3 hPa West 9.7 km/h 16.1 km/h 73 % 0 mm 176 W/m2
15:06 14.7 °C 9.9 °C 1002.3 hPa West 9.7 km/h 16.1 km/h 73 % 0 mm 239 W/m2
15:11 14.8 °C 10 °C 1002.3 hPa West 9.7 km/h 14.5 km/h 73 % 0 mm 142 W/m2
15:16 14.9 °C 9.9 °C 1002.3 hPa West 9.7 km/h 19.3 km/h 72 % 0 mm 84 W/m2
15:21 14.9 °C 9.9 °C 1002.3 hPa West 9.7 km/h 19.3 km/h 72 % 0 mm 120 W/m2
15:26 15 °C 10 °C 1002.3 hPa WSW 9.7 km/h 19.3 km/h 72 % 0 mm 255 W/m2
15:31 15.2 °C 10.4 °C 1002.3 hPa SW 9.7 km/h 19.3 km/h 73 % 0 mm 563 W/m2
15:36 15.7 °C 10.2 °C 1002.3 hPa WSW 8 km/h 17.7 km/h 70 % 0 mm 267 W/m2
15:41 16 °C 9.9 °C 1002.3 hPa WSW 9.7 km/h 17.7 km/h 67 % 0 mm 285 W/m2
15:44 16 °C 9.7 °C 1001.9 hPa WSW 12.9 km/h 24.1 km/h 66 % 0 mm 422 W/m2
15:49 16.1 °C 9.5 °C 1001.9 hPa WSW 14.5 km/h 24.1 km/h 65 % 0 mm 207 W/m2
15:54 16.1 °C 9.3 °C 1001.9 hPa WSW 12.9 km/h 24.1 km/h 64 % 0 mm 225 W/m2
15:59 16 °C 9.2 °C 1001.9 hPa WSW 9.7 km/h 20.9 km/h 64 % 0 mm 239 W/m2
16:04 15.8 °C 8.8 °C 1001.6 hPa WSW 14.5 km/h 29 km/h 63 % 0 mm 144 W/m2
16:09 15.7 °C 8.7 °C 1001.6 hPa WSW 17.7 km/h 29 km/h 63 % 0 mm 160 W/m2
16:14 15.6 °C 8.6 °C 1001.6 hPa WSW 16.1 km/h 29 km/h 63 % 0 mm 185 W/m2
16:19 15.6 °C 8.8 °C 1001.2 hPa WSW 14.5 km/h 29 km/h 64 % 0 mm 214 W/m2
16:24 15.7 °C 8.9 °C 1001.2 hPa WSW 14.5 km/h 29 km/h 64 % 0 mm 174 W/m2
16:29 15.6 °C 8.8 °C 1001.2 hPa WSW 14.5 km/h 30.6 km/h 64 % 0 mm 100 W/m2
16:34 15.6 °C 8.8 °C 1001.2 hPa WSW 14.5 km/h 30.6 km/h 64 % 0 mm 83 W/m2
16:39 15.4 °C 8.6 °C 1001.6 hPa WSW 14.5 km/h 25.7 km/h 64 % 0 mm 95 W/m2
16:44 15.4 °C 8.8 °C 1001.2 hPa WSW 12.9 km/h 22.5 km/h 65 % 0 mm 74 W/m2
16:49 15.3 °C 9 °C 1001.2 hPa WSW 11.3 km/h 20.9 km/h 66 % 0 mm 113 W/m2
16:54 15.2 °C 8.9 °C 1000.9 hPa WSW 12.9 km/h 29 km/h 66 % 0 mm 104 W/m2
16:59 15.1 °C 9 °C 1000.9 hPa WSW 11.3 km/h 29 km/h 67 % 0 mm 86 W/m2
17:04 15.1 °C 9 °C 1000.9 hPa WSW 9.7 km/h 16.1 km/h 67 % 0 mm 83 W/m2
17:09 14.9 °C 8.8 °C 1000.6 hPa SW 11.3 km/h 22.5 km/h 67 % 0 mm 81 W/m2
17:14 14.9 °C 9.1 °C 1000.6 hPa SW 11.3 km/h 22.5 km/h 68 % 0 mm 46 W/m2
17:19 14.8 °C 9.2 °C 1000.6 hPa SSW 11.3 km/h 25.7 km/h 69 % 0 mm 35 W/m2
17:24 14.6 °C 9.2 °C 1000.6 hPa SSW 14.5 km/h 25.7 km/h 70 % 0 mm 35 W/m2
17:29 14.5 °C 9.1 °C 1000.2 hPa SW 14.5 km/h 29 km/h 70 % 0 mm 63 W/m2
17:34 14.4 °C 9.2 °C 1000.2 hPa SW 14.5 km/h 29 km/h 71 % 0 mm 46 W/m2
17:39 14.3 °C 9.3 °C 999.9 hPa SW 11.3 km/h 20.9 km/h 72 % 0 mm 30 W/m2
17:45 14.2 °C 9.2 °C 999.5 hPa SSW 9.7 km/h 19.3 km/h 72 % 0 mm 30 W/m2
17:50 14.2 °C 9.2 °C 999.5 hPa SSW 9.7 km/h 24.1 km/h 72 % 0 mm 44 W/m2
17:55 14.1 °C 9.1 °C 999.5 hPa SW 11.3 km/h 24.1 km/h 72 % 0 mm 56 W/m2
18:00 14 °C 9.1 °C 999.5 hPa SW 12.9 km/h 20.9 km/h 72 % 0 mm 54 W/m2
18:05 14 °C 9.1 °C 999.2 hPa SSW 11.3 km/h 19.3 km/h 72 % 0 mm 37 W/m2
18:10 13.9 °C 9.1 °C 998.9 hPa SSW 9.7 km/h 17.7 km/h 73 % 0 mm 51 W/m2
18:15 13.9 °C 9.1 °C 998.9 hPa SSW 6.4 km/h 12.9 km/h 73 % 0 mm 49 W/m2
18:20 13.9 °C 9.1 °C 998.9 hPa South 6.4 km/h 16.1 km/h 73 % 0 mm 40 W/m2
18:25 13.9 °C 9.1 °C 998.5 hPa South 8 km/h 17.7 km/h 73 % 0 mm 21 W/m2
18:30 13.9 °C 9.1 °C 998.5 hPa South 8 km/h 17.7 km/h 73 % 0 mm 16 W/m2
18:35 13.8 °C 9.1 °C 998.5 hPa South 6.4 km/h 16.1 km/h 73 % 0 mm 9 W/m2
18:40 13.8 °C 9.1 °C 998.5 hPa South 4.8 km/h 12.9 km/h 73 % 0 mm 9 W/m2
18:45 13.8 °C 9.1 °C 998.5 hPa SSW 6.4 km/h 20.9 km/h 73 % 0 mm 9 W/m2
18:50 13.7 °C 8.9 °C 998.5 hPa SSW 9.7 km/h 20.9 km/h 73 % 0 mm 9 W/m2
18:55 13.7 °C 9.2 °C 998.5 hPa SSW 8 km/h 17.7 km/h 74 % 0 mm 7 W/m2
19:00 13.6 °C 9.1 °C 998.2 hPa SSW 8 km/h 19.3 km/h 74 % 0 mm 5 W/m2
19:05 13.6 °C 9.1 °C 997.9 hPa SSW 8 km/h 19.3 km/h 74 % 0 mm 12 W/m2
19:10 13.6 °C 9.1 °C 997.5 hPa SSW 6.4 km/h 12.9 km/h 74 % 0 mm 11 W/m2
19:15 13.6 °C 9.4 °C 997.5 hPa South 4.8 km/h 12.9 km/h 76 % 0 mm 5 W/m2
19:20 13.5 °C 9.6 °C 997.2 hPa South 4.8 km/h 12.9 km/h 77 % 0 mm 0 W/m2
19:25 13.4 °C 9.4 °C 997.2 hPa South 4.8 km/h 12.9 km/h 77 % 0 mm 0 W/m2
19:30 13.3 °C 9.3 °C 997.2 hPa South 8 km/h 14.5 km/h 77 % 0 mm 0 W/m2
19:35 13.3 °C 9.3 °C 997.2 hPa SSW 8 km/h 14.5 km/h 77 % 0 mm 0 W/m2
19:38 13.3 °C 9.6 °C 997.2 hPa SSW 9.7 km/h 19.3 km/h 78 % 0 mm 0 W/m2
19:43 13.3 °C 9.6 °C 997.2 hPa SSW 9.7 km/h 19.3 km/h 78 % 0 mm 0 W/m2
19:48 13.3 °C 9.6 °C 996.8 hPa SSW 9.7 km/h 17.7 km/h 78 % 0 mm 0 W/m2
19:53 13.3 °C 9.6 °C 997.2 hPa SSW 11.3 km/h 20.9 km/h 78 % 0 mm 0 W/m2
19:58 13.2 °C 9.8 °C 996.8 hPa SSW 11.3 km/h 20.9 km/h 80 % 0 mm 0 W/m2
20:03 13.1 °C 9.9 °C 996.8 hPa SSW 8 km/h 14.5 km/h 81 % 0.25 mm 0 W/m2
20:08 12.9 °C 10.1 °C 996.8 hPa SSW 8 km/h 14.5 km/h 83 % 0.51 mm 0 W/m2
20:13 12.8 °C 10.2 °C 996.8 hPa SSW 6.4 km/h 14.5 km/h 84 % 0.51 mm 0 W/m2
20:18 12.6 °C 10.2 °C 996.8 hPa South 8 km/h 16.1 km/h 85 % 0.51 mm 0 W/m2
20:23 12.5 °C 10.2 °C 996.5 hPa South 9.7 km/h 17.7 km/h 86 % 0.51 mm 0 W/m2
20:24 12.4 °C 10.1 °C 996.5 hPa South 9.7 km/h 17.7 km/h 86 % 0.51 mm 0 W/m2
20:29 12.3 °C 10.2 °C 996.2 hPa South 6.4 km/h 17.7 km/h 87 % 0.51 mm 0 W/m2
20:34 12.3 °C 10.2 °C 996.2 hPa South 6.4 km/h 16.1 km/h 87 % 0.51 mm 0 W/m2
20:39 12.2 °C 10.3 °C 996.2 hPa South 8 km/h 17.7 km/h 88 % 0.51 mm 0 W/m2
20:44 12.1 °C 10.2 °C 995.8 hPa SSE 9.7 km/h 19.3 km/h 88 % 0.76 mm 0 W/m2
20:49 12 °C 10.1 °C 995.5 hPa SSE 9.7 km/h 19.3 km/h 88 % 0.76 mm 0 W/m2
20:54 11.9 °C 10 °C 995.5 hPa SSE 9.7 km/h 20.9 km/h 88 % 0.76 mm 0 W/m2
20:59 11.9 °C 10.2 °C 994.8 hPa SSE 11.3 km/h 20.9 km/h 89 % 0.76 mm 0 W/m2
21:04 11.8 °C 10.1 °C 994.8 hPa SSE 8 km/h 16.1 km/h 89 % 0.51 mm 0 W/m2
21:09 11.7 °C 9.9 °C 994.8 hPa South 6.4 km/h 12.9 km/h 89 % 0.51 mm 0 W/m2
21:14 11.7 °C 9.9 °C 994.1 hPa SSE 6.4 km/h 12.9 km/h 89 % 0.51 mm 0 W/m2
21:19 11.7 °C 10.1 °C 994.1 hPa SE 6.4 km/h 12.9 km/h 90 % 0.51 mm 0 W/m2
21:29 11.5 °C 9.9 °C 993.5 hPa SE 9.7 km/h 17.7 km/h 90 % 0.76 mm 0 W/m2
21:34 11.4 °C 10 °C 993.5 hPa SE 11.3 km/h 22.5 km/h 91 % 0.76 mm 0 W/m2
21:39 11.3 °C 9.9 °C 993.1 hPa SE 12.9 km/h 22.5 km/h 91 % 0.76 mm 0 W/m2
21:44 11.2 °C 9.9 °C 992.8 hPa SE 12.9 km/h 22.5 km/h 92 % 0.76 mm 0 W/m2
21:49 11.1 °C 9.8 °C 992.4 hPa SE 12.9 km/h 22.5 km/h 92 % 0.76 mm 0 W/m2
21:54 11.1 °C 10 °C 992.1 hPa SE 14.5 km/h 29 km/h 93 % 1.02 mm 0 W/m2
21:59 11 °C 9.9 °C 992.1 hPa SE 17.7 km/h 32.2 km/h 93 % 1.27 mm 0 W/m2
22:04 11 °C 9.9 °C 991.4 hPa SE 17.7 km/h 32.2 km/h 93 % 1.27 mm 0 W/m2
22:09 10.9 °C 9.8 °C 991.1 hPa SE 17.7 km/h 32.2 km/h 93 % 1.52 mm 0 W/m2
22:14 10.9 °C 9.9 °C 990.7 hPa SSE 17.7 km/h 30.6 km/h 94 % 1.52 mm 0 W/m2
22:19 10.9 °C 9.9 °C 990.7 hPa SSE 16.1 km/h 30.6 km/h 94 % 1.52 mm 0 W/m2
22:24 10.9 °C 9.9 °C 990.4 hPa SSE 19.3 km/h 35.4 km/h 94 % 1.52 mm 0 W/m2
22:29 10.8 °C 9.9 °C 990.1 hPa SSE 20.9 km/h 35.4 km/h 94 % 1.27 mm 0 W/m2
22:35 10.8 °C 9.9 °C 990.1 hPa SSE 20.9 km/h 38.6 km/h 94 % 1.27 mm 0 W/m2
22:40 10.8 °C 10.1 °C 989.7 hPa SSE 19.3 km/h 38.6 km/h 95 % 1.27 mm 0 W/m2
22:45 10.9 °C 10.1 °C 989.4 hPa SSE 22.5 km/h 37 km/h 95 % 1.27 mm 0 W/m2
22:50 10.9 °C 10.1 °C 989.4 hPa SSE 20.9 km/h 37 km/h 95 % 1.27 mm 0 W/m2
22:55 10.9 °C 10.1 °C 989.1 hPa SSE 16.1 km/h 29 km/h 95 % 1.02 mm 0 W/m2
23:00 11 °C 10.2 °C 988.7 hPa SSE 16.1 km/h 29 km/h 95 % 0.76 mm 0 W/m2
23:05 11 °C 10.2 °C 988.7 hPa SSE 16.1 km/h 29 km/h 95 % 0.76 mm 0 W/m2
23:10 11.1 °C 10.3 °C 988.4 hPa SSE 16.1 km/h 30.6 km/h 95 % 0.51 mm 0 W/m2
23:15 11.1 °C 10.3 °C 988.4 hPa SSE 16.1 km/h 32.2 km/h 95 % 0.51 mm 0 W/m2
23:20 11.1 °C 10.3 °C 988 hPa South 16.1 km/h 32.2 km/h 95 % 0.51 mm 0 W/m2
23:25 11.1 °C 10.3 °C 987.7 hPa South 14.5 km/h 30.6 km/h 95 % 0.25 mm 0 W/m2
23:30 11.2 °C 10.4 °C 987.7 hPa South 14.5 km/h 29 km/h 95 % 0.25 mm 0 W/m2
23:35 11.2 °C 10.4 °C 987.4 hPa South 14.5 km/h 29 km/h 95 % 0.25 mm 0 W/m2
23:40 11.2 °C 10.4 °C 987.4 hPa South 14.5 km/h 29 km/h 95 % 0 mm 0 W/m2
23:45 11.2 °C 10.4 °C 987 hPa South 11.3 km/h 24.1 km/h 95 % 0 mm 0 W/m2
23:50 11.3 °C 10.6 °C 987 hPa South 11.3 km/h 22.5 km/h 95 % 0 mm 0 W/m2
23:55 11.3 °C 10.7 °C 986.7 hPa South 9.7 km/h 22.5 km/h 96 % 0 mm 0 W/m2
Delerius-Weather
Compliments of Weather Underground - 2.25 mb

Data updates at regular intervals.